< < Back
Terminal Aerodrome Forecast


Current Version              Previous Versions:   1  2  3  4  5  6  7  8  9  

Terminal Aerodrome Forecast

015
FTUS42 KTAE 172300 AAA
TAFTLH
TAF AMD
KTLH 172302Z 1723/1818 06012G18KT P6SM BKN025 OVC050
      TEMPO 1723/1724 2SM TSRA BKN020CB OVC050
     FM180200 08010KT P6SM OVC015
     FM180700 08010KT 5SM RA OVC008
     FM181200 07013G20KT 2SM +RA OVC006=

Latest METAR

750
SAUS80 KWBC 180500
MTRTLH
METAR KTLH 180453Z AUTO 08008KT 10SM -RA OVC018 17/14 A3018 RMK AO2
RAE34B53 SLP220 P0004 T01720139 402330122


USA.gov is the U.S. government's official web portal to all federal, state and local government web resources and services.